createdAt,value
2023-01-12T00:02:19.214Z,20.40
2023-01-12T00:04:47.512Z,19.77
2023-01-12T00:07:18.018Z,18.85
2023-01-12T00:09:47.631Z,22.05
2023-01-12T00:12:15.714Z,24.48
2023-01-12T00:14:43.792Z,18.73
2023-01-12T00:17:15.746Z,25.40
2023-01-12T00:19:45.143Z,24.45
2023-01-12T00:22:16.578Z,29.08
2023-01-12T00:24:49.543Z,28.77
2023-01-12T00:27:19.183Z,28.50
2023-01-12T00:29:47.261Z,25.10
2023-01-12T00:32:16.930Z,24.77
2023-01-12T00:34:45.966Z,19.80
2023-01-12T00:37:14.664Z,28.45
2023-01-12T00:39:56.582Z,26.10
2023-01-12T00:42:47.674Z,21.88
2023-01-12T00:45:25.662Z,25.80
2023-01-12T00:47:54.753Z,22.25
2023-01-12T00:50:23.360Z,27.52
2023-01-12T00:52:51.791Z,16.63
2023-01-12T00:55:19.910Z,22.20
2023-01-12T00:57:49.351Z,16.77
2023-01-12T01:00:18.693Z,23.13
2023-01-12T01:02:47.004Z,25.73
2023-01-12T01:05:15.690Z,22.90
2023-01-12T01:07:43.750Z,18.23
2023-01-12T01:10:18.217Z,16.77
2023-01-12T01:12:46.443Z,23.50
2023-01-12T01:15:16.033Z,19.65
2023-01-12T01:17:44.129Z,30.17
2023-01-12T01:20:13.287Z,18.17
2023-01-12T01:22:42.831Z,18.42
2023-01-12T01:25:11.319Z,24.35
2023-01-12T01:27:39.484Z,26.13
2023-01-12T01:30:08.863Z,14.13
2023-01-12T01:32:41.476Z,11.68
2023-01-12T01:35:10.470Z,11.93
2023-01-12T01:37:38.592Z,14.23
2023-01-12T01:40:08.214Z,13.20
2023-01-12T01:42:36.314Z,23.85
2023-01-12T01:45:06.396Z,19.80
2023-01-12T01:47:40.924Z,13.13
2023-01-12T01:50:16.963Z,26.60
2023-01-12T01:52:46.755Z,11.73
2023-01-12T01:55:18.235Z,15.38
2023-01-12T01:57:52.658Z,11.55
2023-01-12T02:00:21.571Z,12.63
2023-01-12T02:02:52.452Z,18.10
2023-01-12T02:05:22.592Z,12.38
2023-01-12T02:07:51.161Z,9.10
2023-01-12T02:10:20.269Z,13.52
2023-01-12T02:13:06.809Z,14.38
2023-01-12T02:15:58.907Z,17.88
2023-01-12T02:18:32.528Z,12.50
2023-01-12T02:21:08.198Z,16.00
2023-01-12T02:24:00.603Z,15.57
2023-01-12T02:27:19.389Z,14.55
2023-01-12T02:30:24.178Z,14.13
2023-01-12T02:33:02.502Z,15.90
2023-01-12T02:35:39.251Z,12.10
2023-01-12T02:38:14.163Z,10.40
2023-01-12T02:40:48.150Z,10.27
2023-01-12T02:43:18.871Z,14.05
2023-01-12T02:45:52.791Z,11.77
2023-01-12T02:48:26.310Z,16.13
2023-01-12T02:50:58.587Z,12.93
2023-01-12T02:55:58.856Z,11.55
2023-01-12T02:58:28.680Z,12.27
2023-01-12T03:00:58.859Z,20.13
2023-01-12T03:03:28.265Z,20.65
2023-01-12T03:05:59.677Z,17.27
2023-01-12T03:08:30.510Z,14.32
2023-01-12T03:11:19.811Z,15.77
2023-01-12T03:13:51.771Z,16.58
2023-01-12T03:16:22.468Z,16.65
2023-01-12T03:18:56.825Z,23.77
2023-01-12T03:21:28.756Z,20.60
2023-01-12T03:24:01.636Z,12.70
2023-01-12T03:26:30.465Z,13.43
2023-01-12T03:29:03.813Z,13.38
2023-01-12T03:34:02.137Z,12.45
2023-01-12T03:36:38.398Z,10.80
2023-01-12T03:39:14.518Z,10.73
2023-01-12T03:41:50.944Z,13.48
2023-01-12T03:44:24.527Z,10.48
2023-01-12T03:46:55.440Z,13.85
2023-01-12T03:49:31.355Z,17.00
2023-01-12T03:52:01.505Z,10.50
2023-01-12T03:54:30.553Z,11.38
2023-01-12T03:56:59.673Z,7.53
2023-01-12T03:59:28.175Z,11.32
2023-01-12T04:01:56.747Z,14.23
2023-01-12T04:04:26.484Z,9.07
2023-01-12T04:06:54.584Z,12.70
2023-01-12T04:09:23.003Z,14.27
2023-01-12T04:12:08.930Z,7.78
2023-01-12T04:14:37.479Z,6.78
2023-01-12T04:17:05.585Z,13.48
2023-01-12T04:19:38.922Z,6.90
2023-01-12T04:22:25.485Z,16.23
2023-01-12T04:24:53.636Z,11.10
2023-01-12T04:27:22.354Z,9.15
2023-01-12T04:29:50.344Z,10.55
2023-01-12T04:32:18.537Z,9.43
2023-01-12T04:34:48.216Z,13.00
2023-01-12T04:37:16.800Z,12.93
2023-01-12T04:39:45.845Z,9.60
2023-01-12T04:42:27.866Z,7.55
2023-01-12T04:44:56.348Z,4.55
2023-01-12T04:47:24.488Z,14.77
2023-01-12T04:49:56.188Z,9.55
2023-01-12T04:52:24.636Z,12.60
2023-01-12T04:54:52.937Z,14.13
2023-01-12T04:57:21.017Z,15.52
2023-01-12T04:59:49.722Z,8.90
2023-01-12T05:02:18.676Z,14.27
2023-01-12T05:04:48.026Z,12.00
2023-01-12T05:07:18.013Z,11.05
2023-01-12T05:10:06.519Z,9.00
2023-01-12T05:12:35.358Z,6.72
2023-01-12T05:15:05.494Z,8.82
2023-01-12T05:17:33.917Z,8.00
2023-01-12T05:20:03.082Z,10.07
2023-01-12T05:22:35.087Z,9.38
2023-01-12T05:25:03.393Z,10.70
2023-01-12T05:27:31.466Z,7.13
2023-01-12T05:30:02.191Z,6.68
2023-01-12T05:32:30.433Z,11.95
2023-01-12T05:35:00.845Z,10.02
2023-01-12T05:37:29.807Z,11.93
2023-01-12T05:40:04.713Z,6.57
2023-01-12T05:42:51.432Z,8.90
2023-01-12T05:45:21.276Z,8.00
2023-01-12T05:47:49.552Z,9.30
2023-01-12T05:50:19.277Z,10.32
2023-01-12T05:52:47.564Z,12.77
2023-01-12T05:55:18.263Z,10.10
2023-01-12T05:57:47.289Z,11.93
2023-01-12T06:00:16.400Z,9.45
2023-01-12T06:02:45.880Z,11.63
2023-01-12T06:05:16.517Z,8.15
2023-01-12T06:07:44.476Z,7.40
2023-01-12T06:10:13.197Z,12.82
2023-01-12T06:13:01.776Z,12.88
2023-01-12T06:15:37.853Z,15.10
2023-01-12T06:18:05.917Z,10.57
2023-01-12T06:20:33.941Z,7.75
2023-01-12T06:23:04.549Z,4.88
2023-01-12T06:25:35.485Z,12.35
2023-01-12T06:28:06.666Z,7.88
2023-01-12T06:30:34.667Z,9.48
2023-01-12T06:33:04.157Z,12.77
2023-01-12T06:35:32.985Z,7.18
2023-01-12T06:38:02.031Z,7.95
2023-01-12T06:40:30.238Z,10.07
2023-01-12T06:42:58.368Z,13.40
2023-01-12T06:45:27.927Z,11.23
2023-01-12T06:47:59.069Z,11.48
2023-01-12T06:50:27.864Z,9.45
2023-01-12T06:52:57.091Z,6.95
2023-01-12T06:55:25.467Z,6.60
2023-01-12T06:57:56.721Z,12.27
2023-01-12T07:00:25.685Z,11.32
2023-01-12T07:02:56.372Z,11.88
2023-01-12T07:05:24.589Z,7.35
2023-01-12T07:08:00.548Z,9.77
2023-01-12T07:10:32.508Z,8.40
2023-01-12T07:13:01.319Z,11.02
2023-01-12T07:15:30.786Z,9.35
2023-01-12T07:18:01.123Z,9.98
2023-01-12T07:20:29.288Z,11.57
2023-01-12T07:22:57.399Z,7.38
2023-01-12T07:25:25.591Z,11.13
2023-01-12T07:27:56.583Z,12.93
2023-01-12T07:30:25.361Z,11.15
2023-01-12T07:32:53.992Z,7.85
2023-01-12T07:35:25.232Z,9.60
2023-01-12T07:37:54.910Z,8.97
2023-01-12T07:40:24.205Z,8.13
2023-01-12T07:42:59.648Z,8.55
2023-01-12T07:45:28.382Z,4.65
2023-01-12T07:47:57.178Z,10.82
2023-01-12T07:50:27.741Z,9.57
2023-01-12T07:52:56.111Z,6.60
2023-01-12T07:55:24.651Z,11.68
2023-01-12T07:57:55.975Z,6.78
2023-01-12T08:00:25.124Z,11.38
2023-01-12T08:02:54.023Z,6.95
2023-01-12T08:05:24.037Z,9.70
2023-01-12T08:07:55.948Z,11.25
2023-01-12T08:10:24.026Z,4.38
2023-01-12T08:12:52.380Z,11.30
2023-01-12T08:15:22.576Z,7.60
2023-01-12T08:17:52.952Z,7.35
2023-01-12T08:20:23.919Z,8.77
2023-01-12T08:22:54.548Z,7.53
2023-01-12T08:25:27.219Z,8.10
2023-01-12T08:27:58.410Z,9.23
2023-01-12T08:30:27.210Z,3.38
2023-01-12T08:32:57.453Z,5.43
2023-01-12T08:35:29.460Z,9.93
2023-01-12T08:37:59.256Z,9.25
2023-01-12T08:40:48.199Z,5.47
2023-01-12T08:43:37.395Z,5.80
2023-01-12T08:46:08.018Z,8.32
2023-01-12T08:48:36.485Z,7.13
2023-01-12T08:51:05.779Z,9.50
2023-01-12T08:53:37.888Z,5.32
2023-01-12T08:56:07.716Z,9.30
2023-01-12T08:58:37.364Z,8.98
2023-01-12T09:01:09.872Z,7.47
2023-01-12T09:03:38.421Z,5.10
2023-01-12T09:06:11.592Z,4.10
2023-01-12T09:08:41.261Z,8.25
2023-01-12T09:11:10.342Z,7.78
2023-01-12T09:13:38.720Z,6.50
2023-01-12T09:16:12.617Z,6.32
2023-01-12T09:18:43.257Z,5.30
2023-01-12T09:21:12.810Z,9.48
2023-01-12T09:23:42.776Z,6.47
2023-01-12T09:26:14.803Z,4.85
2023-01-12T09:28:45.193Z,7.57
2023-01-12T09:31:17.341Z,6.70
2023-01-12T09:33:48.409Z,9.68
2023-01-12T09:36:18.276Z,8.93
2023-01-12T09:38:48.193Z,9.23
2023-01-12T09:41:18.539Z,7.55
2023-01-12T09:44:04.463Z,4.70
2023-01-12T09:46:55.399Z,11.80
2023-01-12T09:49:25.680Z,11.50
2023-01-12T09:51:58.340Z,13.57
2023-01-12T09:54:27.736Z,7.47
2023-01-12T09:57:02.440Z,6.55
2023-01-12T09:59:40.107Z,7.25
2023-01-12T10:02:12.239Z,9.90
2023-01-12T10:04:41.072Z,5.75
2023-01-12T10:07:13.136Z,7.07
2023-01-12T10:09:43.088Z,10.25
2023-01-12T10:12:18.941Z,5.32
2023-01-12T10:15:11.454Z,5.47
2023-01-12T10:17:51.372Z,3.20
2023-01-12T10:20:28.100Z,9.13
2023-01-12T10:22:59.379Z,8.20
2023-01-12T10:25:32.890Z,7.53
2023-01-12T10:28:06.358Z,4.93
2023-01-12T10:30:35.964Z,4.90
2023-01-12T10:33:11.990Z,6.25
2023-01-12T10:35:50.109Z,7.57
2023-01-12T10:38:23.264Z,7.03
2023-01-12T10:41:18.269Z,10.77
2023-01-12T10:43:47.619Z,6.30
2023-01-12T10:46:18.056Z,7.25
2023-01-12T10:48:48.034Z,6.68
2023-01-12T10:51:28.399Z,4.95
2023-01-12T10:54:01.093Z,13.23
2023-01-12T10:56:35.293Z,8.80
2023-01-12T10:59:05.762Z,10.40
2023-01-12T11:01:48.519Z,8.45
2023-01-12T11:04:19.682Z,7.93
2023-01-12T11:06:59.501Z,6.97
2023-01-12T11:09:29.749Z,4.47
2023-01-12T11:12:10.700Z,8.05
2023-01-12T11:14:40.683Z,6.60
2023-01-12T11:17:30.573Z,5.38
2023-01-12T11:20:01.862Z,9.20
2023-01-12T11:22:32.784Z,8.20
2023-01-12T11:25:04.758Z,6.88
2023-01-12T11:27:40.639Z,8.65
2023-01-12T11:30:17.111Z,7.55
2023-01-12T11:32:47.428Z,5.55
2023-01-12T11:35:25.880Z,8.25
2023-01-12T11:37:56.968Z,5.70
2023-01-12T11:40:30.577Z,7.93
2023-01-12T11:43:25.251Z,8.32
2023-01-12T11:45:55.886Z,7.45
2023-01-12T11:48:29.147Z,5.45
2023-01-12T11:51:02.041Z,3.85
2023-01-12T11:53:30.540Z,6.75
2023-01-12T11:56:11.547Z,5.05
2023-01-12T11:58:50.981Z,4.22
2023-01-12T12:01:23.139Z,6.95
2023-01-12T12:03:59.529Z,4.05
2023-01-12T12:06:38.131Z,4.13
2023-01-12T12:09:14.375Z,4.88
2023-01-12T12:11:46.464Z,7.25
2023-01-12T12:14:26.752Z,6.68
2023-01-12T12:17:01.209Z,4.05
2023-01-12T12:19:38.771Z,1.60
2023-01-12T12:22:19.906Z,3.53
2023-01-12T12:25:04.902Z,1.55
2023-01-12T12:27:50.043Z,3.17
2023-01-12T12:30:45.558Z,10.32
2023-01-12T12:33:22.434Z,4.03
2023-01-12T12:36:07.212Z,5.07
2023-01-12T12:38:47.776Z,2.75
2023-01-12T12:41:43.519Z,2.00
2023-01-12T12:44:41.291Z,2.17
2023-01-12T12:47:30.232Z,2.75
2023-01-12T12:50:00.078Z,3.17
2023-01-12T12:52:29.816Z,2.10
2023-01-12T12:54:59.321Z,0.95
2023-01-12T12:57:27.539Z,2.08
2023-01-12T12:59:59.678Z,2.80
2023-01-12T13:02:41.089Z,2.05
2023-01-12T13:05:11.113Z,1.80
2023-01-12T13:07:45.406Z,1.55
2023-01-12T13:10:29.476Z,2.17
2023-01-12T13:13:02.909Z,1.92
2023-01-12T13:15:37.288Z,1.17
2023-01-12T13:18:07.726Z,0.82
2023-01-12T13:20:49.613Z,1.33
2023-01-12T13:23:48.545Z,1.42
2023-01-12T13:26:29.397Z,3.75
2023-01-12T13:29:34.808Z,1.65
2023-01-12T13:32:47.743Z,1.50
2023-01-12T13:35:55.813Z,2.25
2023-01-12T13:38:37.446Z,3.25
2023-01-12T13:41:41.752Z,0.70
2023-01-12T13:44:12.696Z,2.10
2023-01-12T13:46:43.387Z,2.35
2023-01-12T13:49:26.369Z,2.10
2023-01-12T13:51:59.425Z,1.45
2023-01-12T13:54:29.167Z,2.25
2023-01-12T13:56:59.850Z,1.73
2023-01-12T13:59:30.432Z,0.85
2023-01-12T14:01:58.754Z,0.65
2023-01-12T14:04:54.037Z,2.55
2023-01-12T14:07:30.828Z,3.97
2023-01-12T14:10:11.514Z,0.88
2023-01-12T14:12:53.956Z,0.85
2023-01-12T14:15:46.387Z,0.65
2023-01-12T14:18:17.159Z,0.98
2023-01-12T14:20:47.583Z,2.22
2023-01-12T14:23:18.850Z,0.88
2023-01-12T14:25:53.497Z,2.25
2023-01-12T14:28:23.947Z,1.35
2023-01-12T14:30:53.815Z,1.60
2023-01-12T14:33:24.239Z,2.05
2023-01-12T14:35:59.013Z,0.63
2023-01-12T14:38:29.786Z,0.43
2023-01-12T14:41:03.300Z,1.63
2023-01-12T14:43:50.710Z,0.88
2023-01-12T14:46:28.472Z,3.22
2023-01-12T14:48:58.765Z,0.40
2023-01-12T14:51:33.054Z,1.85
2023-01-12T14:54:16.365Z,12.07
2023-01-12T14:56:51.117Z,1.50
2023-01-12T14:59:24.224Z,0.80
2023-01-12T15:01:54.273Z,0.77
2023-01-12T15:04:25.001Z,0.47
2023-01-12T15:07:02.875Z,0.35
2023-01-12T15:09:32.366Z,1.83
2023-01-12T15:12:26.788Z,0.35
2023-01-12T15:14:55.334Z,0.85
2023-01-12T15:17:41.335Z,0.85
2023-01-12T15:20:31.269Z,3.42
2023-01-12T15:23:18.219Z,2.05
2023-01-12T15:25:46.721Z,0.63
2023-01-12T15:28:17.990Z,3.67
2023-01-12T15:30:46.423Z,4.32
2023-01-12T15:33:15.701Z,0.50
2023-01-12T15:35:47.169Z,0.30
2023-01-12T15:38:16.876Z,1.30
2023-01-12T15:40:46.642Z,1.13
2023-01-12T15:43:20.559Z,1.42
2023-01-12T15:45:49.327Z,1.80
2023-01-12T15:48:17.692Z,2.13
2023-01-12T15:50:46.566Z,0.30
2023-01-12T15:53:18.279Z,0.40
2023-01-12T15:55:46.622Z,1.38
2023-01-12T15:58:17.399Z,1.20
2023-01-12T16:00:47.274Z,0.50
2023-01-12T16:03:38.225Z,0.60
2023-01-12T16:06:04.339Z,0.73
2023-01-12T16:08:32.644Z,0.82
2023-01-12T16:11:13.478Z,0.75
2023-01-12T16:13:44.839Z,0.60
2023-01-12T16:16:18.141Z,0.55
2023-01-12T16:18:47.639Z,0.80
2023-01-12T16:21:18.325Z,0.60
2023-01-12T16:23:48.025Z,1.25
2023-01-12T16:26:16.245Z,0.80
2023-01-12T16:28:44.905Z,0.95
2023-01-12T16:31:18.258Z,0.60
2023-01-12T16:36:16.547Z,1.30
2023-01-12T16:38:45.582Z,0.40
2023-01-12T16:41:19.393Z,0.57
2023-01-12T16:43:48.436Z,2.95
2023-01-12T16:46:19.490Z,2.63
2023-01-12T16:48:48.628Z,0.57
2023-01-12T16:51:18.774Z,0.77
2023-01-12T16:53:48.679Z,0.47
2023-01-12T16:56:19.451Z,2.13
2023-01-12T16:58:49.754Z,2.47
2023-01-12T17:01:23.557Z,1.95
2023-01-12T17:03:53.868Z,2.47
2023-01-12T17:06:22.468Z,0.70
2023-01-12T17:08:52.414Z,0.98
2023-01-12T17:11:23.908Z,2.47
2023-01-12T17:13:53.297Z,1.77
2023-01-12T17:16:25.252Z,0.75
2023-01-12T17:18:53.739Z,2.47
2023-01-12T17:21:24.586Z,1.35
2023-01-12T17:23:53.507Z,0.73
2023-01-12T17:26:22.515Z,1.45
2023-01-12T17:28:50.959Z,1.67
2023-01-12T17:31:20.615Z,0.77
2023-01-12T17:33:52.447Z,2.20
2023-01-12T17:36:20.469Z,0.87
2023-01-12T17:38:48.476Z,0.63
2023-01-12T17:41:32.199Z,0.50
2023-01-12T17:44:03.054Z,0.90
2023-01-12T17:46:31.623Z,1.30
2023-01-12T17:49:02.055Z,1.85
2023-01-12T17:51:30.733Z,1.33
2023-01-12T17:54:00.249Z,0.63
2023-01-12T17:56:33.952Z,0.32
2023-01-12T17:59:03.784Z,0.93
2023-01-12T18:01:34.096Z,0.52
2023-01-12T18:04:04.343Z,1.33
2023-01-12T18:06:34.064Z,0.75
2023-01-12T18:09:02.418Z,0.60
2023-01-12T18:11:31.895Z,0.50
2023-01-12T18:14:02.026Z,0.30
2023-01-12T18:16:30.982Z,1.77
2023-01-12T18:18:59.850Z,0.60
2023-01-12T18:21:29.591Z,0.68
2023-01-12T18:24:01.558Z,0.50
2023-01-12T18:26:31.416Z,0.70
2023-01-12T18:29:01.750Z,2.92
2023-01-12T18:31:37.324Z,1.48
2023-01-12T18:34:08.416Z,0.55
2023-01-12T18:36:40.958Z,0.88
2023-01-12T18:39:14.167Z,0.40
2023-01-12T18:42:00.196Z,1.15
2023-01-12T18:44:28.868Z,2.85
2023-01-12T18:47:16.695Z,1.25
2023-01-12T18:49:46.254Z,1.05
2023-01-12T18:52:34.074Z,0.80
2023-01-12T18:55:03.192Z,0.50
2023-01-12T18:57:32.919Z,0.40
2023-01-12T19:00:09.971Z,0.52
2023-01-12T19:02:39.899Z,2.15
2023-01-12T19:05:26.601Z,0.50
2023-01-12T19:08:25.852Z,1.48
2023-01-12T19:10:53.786Z,1.38
2023-01-12T19:13:39.920Z,2.30
2023-01-12T19:16:26.000Z,1.10
2023-01-12T19:18:54.186Z,4.07
2023-01-12T19:21:40.148Z,2.92
2023-01-12T19:24:28.086Z,2.20
2023-01-12T19:27:15.185Z,2.00
2023-01-12T19:29:44.823Z,1.30
2023-01-12T19:32:13.182Z,1.55
2023-01-12T19:34:41.486Z,2.83
2023-01-12T19:37:10.042Z,2.17
2023-01-12T19:39:59.715Z,1.45
2023-01-12T19:42:46.207Z,2.60
2023-01-12T19:45:14.436Z,1.10
2023-01-12T19:47:44.252Z,1.40
2023-01-12T19:50:14.319Z,2.20
2023-01-12T19:52:44.138Z,0.63
2023-01-12T19:55:15.043Z,0.98
2023-01-12T19:57:44.274Z,1.27
2023-01-12T20:00:15.548Z,1.88
2023-01-12T20:02:44.475Z,2.92
2023-01-12T20:05:17.432Z,1.40
2023-01-12T20:07:45.757Z,2.00
2023-01-12T20:10:15.648Z,1.35
2023-01-12T20:12:44.151Z,3.92
2023-01-12T20:15:13.354Z,1.55
2023-01-12T20:17:42.789Z,3.15
2023-01-12T20:20:12.624Z,2.80
2023-01-12T20:22:41.979Z,2.30
2023-01-12T20:25:10.776Z,2.55
2023-01-12T20:27:40.764Z,2.05
2023-01-12T20:30:15.135Z,4.80
2023-01-12T20:32:45.914Z,1.45
2023-01-12T20:35:17.211Z,1.77
2023-01-12T20:37:45.716Z,0.95
2023-01-12T20:40:14.781Z,3.50
2023-01-12T20:42:44.443Z,1.17
2023-01-12T20:45:14.813Z,2.65
2023-01-12T20:47:43.230Z,1.73
2023-01-12T20:50:13.843Z,3.42
2023-01-12T20:52:43.171Z,2.00
2023-01-12T20:55:11.744Z,0.95
2023-01-12T20:57:40.453Z,1.50
2023-01-12T21:00:15.703Z,2.60
2023-01-12T21:02:44.173Z,3.53
2023-01-12T21:05:12.267Z,2.83
2023-01-12T21:07:43.871Z,2.08
2023-01-12T21:10:12.927Z,2.92
2023-01-12T21:12:40.973Z,1.58
2023-01-12T21:15:13.528Z,2.45
2023-01-12T21:17:42.796Z,0.93
2023-01-12T21:20:12.464Z,1.73
2023-01-12T21:22:40.594Z,1.55
2023-01-12T21:25:09.608Z,1.60
2023-01-12T21:27:38.925Z,2.10
2023-01-12T21:30:08.592Z,1.00
2023-01-12T21:32:38.722Z,2.00
2023-01-12T21:35:07.845Z,2.63
2023-01-12T21:37:35.875Z,1.35
2023-01-12T21:40:06.296Z,2.00
2023-01-12T21:42:52.307Z,4.40
2023-01-12T21:45:26.385Z,3.30
2023-01-12T21:47:57.068Z,1.70
2023-01-12T21:50:25.020Z,3.20
2023-01-12T21:52:53.079Z,1.73
2023-01-12T21:55:21.718Z,2.35
2023-01-12T21:57:49.679Z,2.10
2023-01-12T22:00:18.783Z,1.50
2023-01-12T22:02:46.757Z,3.67
2023-01-12T22:05:16.625Z,1.23
2023-01-12T22:07:45.100Z,2.53
2023-01-12T22:10:22.255Z,1.42
2023-01-12T22:12:52.553Z,2.22
2023-01-12T22:15:20.955Z,1.98
2023-01-12T22:17:51.521Z,7.10
2023-01-12T22:20:21.762Z,2.60
2023-01-12T22:22:49.821Z,2.95
2023-01-12T22:25:18.709Z,2.38
2023-01-12T22:27:50.606Z,2.35
2023-01-12T22:30:20.665Z,2.13
2023-01-12T22:32:58.412Z,2.42
2023-01-12T22:35:27.861Z,1.35
2023-01-12T22:37:56.451Z,3.90
2023-01-12T22:40:24.764Z,2.47
2023-01-12T22:43:10.629Z,1.73
2023-01-12T22:45:39.269Z,1.77
2023-01-12T22:48:07.677Z,2.10
2023-01-12T22:50:37.527Z,1.75
2023-01-12T22:53:05.598Z,2.22
2023-01-12T22:55:33.753Z,2.03
2023-01-12T22:58:01.746Z,1.25
2023-01-12T23:00:31.266Z,1.63
2023-01-12T23:03:02.893Z,0.90
2023-01-12T23:05:36.314Z,2.13
2023-01-12T23:08:07.944Z,2.22
2023-01-12T23:10:36.647Z,1.67
2023-01-12T23:13:16.147Z,1.92
2023-01-12T23:15:49.304Z,2.58
2023-01-12T23:18:19.564Z,2.35
2023-01-12T23:20:47.866Z,1.50
2023-01-12T23:23:18.334Z,4.70
2023-01-12T23:25:47.460Z,2.38
2023-01-12T23:28:17.023Z,1.75
2023-01-12T23:30:45.584Z,1.00
2023-01-12T23:33:13.743Z,2.63
2023-01-12T23:35:43.010Z,3.05
2023-01-12T23:38:15.387Z,3.45
2023-01-12T23:43:13.044Z,2.28
2023-01-12T23:45:41.079Z,2.83
2023-01-12T23:48:09.313Z,4.43
2023-01-12T23:50:37.666Z,3.20
2023-01-12T23:53:06.143Z,2.90
2023-01-12T23:55:34.318Z,0.95
2023-01-12T23:58:06.061Z,1.92
